Terminal Aerodrome Forecast
Issued by NWS

Home | Current Version | Previous Version | Graphics & Text | Print | Product List | Glossary On
Versions: 1 2 3 4 5 6 7 8 9 10 11 12 13 14 15 16 17 18 19 20 21 22 23 24 25 26 27 28 29 30 31 32
000
FTUS43 KTOP 231500 AAB
TAFFOE
TAF AMD
KFOE 231500Z 2315/2412 36003KT 5SM BR FEW110
      TEMPO 2315/2317 1/2SM FG VV003
     FM231800 17009KT P6SM FEW150
     FM232200 15010KT P6SM FEW100=

USA.gov is the U.S. government's official web portal to all federal, state and local government web resources and services.